< < Back
Terminal Aerodrome Forecast


Current Version              Previous Versions:   1  2  3  4  5  6  7  8  9  

Terminal Aerodrome Forecast

375
FTUS42 KJAX 221700
TAFGNV
TAF
KGNV 221724Z 2218/2318 27008KT P6SM SCT040 BKN250
     FM230000 24005KT P6SM SCT050
     FM231000 29004KT 5SM BR SKC
      TEMPO 2312/2314 4SM BR OVC003
     FM231500 29007KT P6SM SCT250=

Latest METAR

871
SAUS70 KWBC 230700 RRH
MTRGNV
METAR KGNV 230653Z AUTO 27005KT 9SM CLR 16/16 A2989 RMK AO2 SLP118
T01610156


USA.gov is the U.S. government's official web portal to all federal, state and local government web resources and services.